Time;durP1;ratioP1;P1;durP2;ratioP2;P2;SDS_P1;SDS_P2;PMS_P1;PMS_P2;Temp;Humidity;BMP_temperature;BMP_pressure;BME280_temperature;BME280_humidity;BME280_pressure;Samples;Min_cycle;Max_cycle;Signal;HPM_P1;HPM_P2
2022/12/04 07:22:23;;;;;;;23.40;11.30;;;;;;;1.14;85.03;102487.21;105343;1309;549707;-69
2022/12/04 07:24:50;;;;;;;23.10;12.30;;;;;;;3.65;74.74;102473.64;105796;1307;21957;-70
2022/12/04 07:27:15;;;;;;;24.30;12.50;;;;;;;4.11;70.86;102471.40;105726;1306;22000;-70
2022/12/04 07:29:42;;;;;;;21.20;10.90;;;;;;;4.31;69.74;102477.17;105651;1307;21967;-68
2022/12/04 07:32:08;;;;;;;20.70;9.70;;;;;;;4.45;68.96;102475.02;105636;1307;21962;-70
2022/12/04 07:34:34;;;;;;;13.60;7.70;;;;;;;4.55;68.19;102476.23;105350;1305;585839;-68
2022/12/04 07:37:00;;;;;;;17.30;8.30;;;;;;;4.65;67.50;102475.45;105666;1304;23103;-68
2022/12/04 07:39:27;;;;;;;12.90;6.70;;;;;;;4.76;67.00;102478.20;105677;1304;24367;-69
2022/12/04 07:41:53;;;;;;;13.80;7.00;;;;;;;4.84;66.79;102482.75;106064;1304;21968;-68
2022/12/04 07:44:18;;;;;;;18.10;7.20;;;;;;;4.91;66.55;102484.77;106023;1303;21963;-69
2022/12/04 07:46:45;;;;;;;16.40;6.80;;;;;;;5.06;65.92;102482.70;105705;1305;22776;-67
2022/12/04 07:49:12;;;;;;;12.10;5.80;;;;;;;5.14;65.41;102485.09;105772;1305;21953;-68
2022/12/04 07:51:38;;;;;;;14.00;5.80;;;;;;;5.17;65.15;102484.73;106058;1304;21954;-69
2022/12/04 07:54:04;;;;;;;11.00;6.00;;;;;;;5.18;64.84;102483.90;106085;1304;21952;-69
2022/12/04 07:56:30;;;;;;;13.10;5.90;;;;;;;5.21;64.64;102486.11;106049;1302;23729;-68
2022/12/04 07:58:56;;;;;;;13.30;6.70;;;;;;;5.25;64.41;102486.62;106227;1304;23787;-66
2022/12/04 08:01:24;;;;;;;13.20;7.00;;;;;;;5.27;64.05;102487.92;106222;1304;22050;-68
2022/12/04 08:03:52;;;;;;;15.40;7.30;;;;;;;5.27;63.99;102492.79;105829;1304;23800;-68
2022/12/04 08:06:19;;;;;;;15.30;6.30;;;;;;;5.21;63.99;102497.41;106068;1302;21959;-68
2022/12/04 08:08:45;;;;;;;14.90;6.80;;;;;;;5.14;63.70;102497.11;105989;1304;22081;-68
2022/12/04 08:11:12;;;;;;;13.80;6.40;;;;;;;5.11;64.03;102496.45;105994;1304;21972;-67
2022/12/04 08:13:39;;;;;;;10.50;5.70;;;;;;;5.13;64.00;102497.73;106082;1304;21951;-68
2022/12/04 08:16:05;;;;;;;12.30;6.00;;;;;;;5.15;63.50;102497.50;105839;1306;22115;-68
2022/12/04 08:18:31;;;;;;;14.30;5.90;;;;;;;5.14;63.23;102497.44;106231;1304;22428;-70
2022/12/04 08:21:08;;;;;;;11.40;5.40;;;;;;;5.12;63.09;102498.05;106025;1304;21948;-70
2022/12/04 08:23:35;;;;;;;12.80;6.10;;;;;;;5.14;63.35;102498.48;105828;1305;23888;-70
2022/12/04 08:26:00;;;;;;;13.20;5.60;;;;;;;5.19;63.46;102496.64;106021;1304;21980;-68
2022/12/04 08:28:26;;;;;;;9.90;4.80;;;;;;;5.18;63.40;102493.98;105983;1304;21951;-69
2022/12/04 08:30:52;;;;;;;13.20;5.40;;;;;;;5.13;63.61;102497.20;106014;1304;21992;-69
2022/12/04 08:33:21;;;;;;;10.20;5.20;;;;;;;5.19;63.34;102491.06;106093;1304;22000;-70
2022/12/04 08:35:47;;;;;;;11.70;5.00;;;;;;;5.21;63.20;102489.23;106127;1304;21958;-68
2022/12/04 08:38:13;;;;;;;14.80;5.60;;;;;;;5.12;63.58;102491.78;106037;1304;21953;-69
2022/12/04 08:40:39;;;;;;;11.40;5.80;;;;;;;5.20;62.93;102490.56;105932;1306;22734;-69
2022/12/04 08:43:05;;;;;;;12.90;6.50;;;;;;;5.26;62.56;102493.13;105917;1304;21994;-69
2022/12/04 08:45:30;;;;;;;20.10;6.90;;;;;;;5.29;62.52;102493.06;106046;1304;21960;-68
2022/12/04 08:47:56;;;;;;;10.40;5.70;;;;;;;5.32;62.73;102494.23;106068;1304;21966;-68
2022/12/04 08:50:21;;;;;;;11.20;5.30;;;;;;;5.35;62.50;102488.96;106132;1303;21951;-68
2022/12/04 08:52:47;;;;;;;11.90;6.00;;;;;;;5.38;62.45;102481.58;106133;1304;24040;-68
2022/12/04 08:55:13;;;;;;;16.50;4.80;;;;;;;5.44;62.16;102480.47;106088;1304;21965;-68
2022/12/04 08:57:39;;;;;;;13.10;5.70;;;;;;;5.35;62.02;102476.95;106084;1304;21964;-69
2022/12/04 09:00:07;;;;;;;10.20;5.10;;;;;;;5.33;62.12;102482.10;106054;1304;23070;-68
2022/12/04 09:02:33;;;;;;;13.80;5.50;;;;;;;5.43;61.74;102482.16;106173;1304;23746;-68
2022/12/04 09:04:58;;;;;;;12.80;5.80;;;;;;;5.50;61.66;102487.70;106069;1304;22123;-68
2022/12/04 09:07:24;;;;;;;13.90;6.80;;;;;;;5.49;61.74;102490.28;106099;1303;24319;-69
2022/12/04 09:09:50;;;;;;;14.60;5.60;;;;;;;5.53;61.35;102489.02;106093;1304;21960;-68
2022/12/04 09:12:15;;;;;;;11.60;5.20;;;;;;;5.59;61.10;102493.64;106114;1304;21957;-67
2022/12/04 09:14:41;;;;;;;14.60;5.50;;;;;;;5.54;61.10;102492.36;105706;1307;23080;-68
2022/12/04 09:17:09;;;;;;;12.40;6.30;;;;;;;5.49;61.12;102483.99;106038;1305;21976;-67
2022/12/04 09:19:35;;;;;;;11.00;5.70;;;;;;;5.48;61.20;102475.61;106046;1307;22002;-68
2022/12/04 09:22:02;;;;;;;13.70;5.70;;;;;;;5.55;60.97;102469.97;106039;1305;22434;-69
2022/12/04 09:24:30;;;;;;;12.10;5.50;;;;;;;5.68;60.76;102467.72;106078;1305;22000;-69
2022/12/04 09:26:55;;;;;;;9.50;4.90;;;;;;;5.76;60.58;102466.83;106089;1307;21954;-68
2022/12/04 09:29:21;;;;;;;15.10;5.20;;;;;;;5.72;60.73;102470.65;105693;1307;21967;-67
2022/12/04 09:31:47;;;;;;;10.30;4.70;;;;;;;5.77;60.46;102469.13;106071;1305;22001;-69
2022/12/04 09:34:12;;;;;;;10.90;5.00;;;;;;;5.81;60.35;102469.99;106052;1305;21986;-68
2022/12/04 09:36:38;;;;;;;11.60;4.40;;;;;;;5.83;60.11;102469.01;106043;1305;21975;-70
2022/12/04 09:39:04;;;;;;;10.30;5.60;;;;;;;5.80;59.99;102474.64;106039;1306;21962;-67
2022/12/04 09:41:46;;;;;;;9.90;4.90;;;;;;;5.74;60.28;102475.98;106091;1306;22000;-68
2022/12/04 09:44:41;;;;;;;16.10;5.40;;;;;;;5.61;60.40;102475.59;106057;1307;21964;-67
2022/12/04 09:47:37;;;;;;;16.00;5.40;;;;;;;5.70;60.16;102470.75;106071;1307;22001;-69
2022/12/04 09:50:09;;;;;;;12.00;4.70;;;;;;;5.71;60.06;102469.55;106091;1307;22214;-68
2022/12/04 09:53:03;;;;;;;11.20;5.30;;;;;;;5.73;59.90;102468.61;105735;1302;21956;-70
2022/12/04 09:55:52;;;;;;;8.50;4.70;;;;;;;5.80;59.97;102466.64;106120;1304;21965;-69
2022/12/04 09:58:24;;;;;;;12.20;4.50;;;;;;;5.82;60.14;102462.15;106087;1304;21956;-68
2022/12/04 10:00:51;;;;;;;10.40;5.10;;;;;;;5.82;60.02;102460.09;105833;1304;21953;-67
2022/12/04 10:03:18;;;;;;;12.10;4.70;;;;;;;5.79;59.87;102461.19;106135;1304;22004;-69
2022/12/04 10:06:09;;;;;;;14.60;4.70;;;;;;;5.80;59.83;102465.77;106058;1301;22011;-69
2022/12/04 10:08:37;;;;;;;10.30;4.60;;;;;;;5.79;59.82;102465.18;105839;1304;24034;-68
2022/12/04 10:11:15;;;;;;;15.40;6.80;;;;;;;5.78;59.87;102463.08;105853;1305;21965;-70
2022/12/04 10:14:37;;;;;;;7.50;3.90;;;;;;;5.74;60.02;102459.77;106102;1302;21953;-69
2022/12/04 10:17:18;;;;;;;9.50;4.30;;;;;;;5.73;59.76;102457.63;105447;1313;21964;-69
2022/12/04 10:19:57;;;;;;;10.10;4.20;;;;;;;5.75;59.73;102455.95;105333;1313;21979;-66
2022/12/04 10:22:41;;;;;;;15.20;4.40;;;;;;;5.76;59.67;102453.91;105728;1301;23605;-68
2022/12/04 10:25:22;;;;;;;9.00;4.80;;;;;;;5.74;59.61;102446.70;106059;1304;21963;-67
2022/12/04 10:28:02;;;;;;;9.20;4.60;;;;;;;5.71;59.47;102443.97;105835;1307;21976;-67
2022/12/04 10:30:29;;;;;;;13.50;4.80;;;;;;;5.71;59.67;102446.41;106070;1304;23103;-69
2022/12/04 10:32:58;;;;;;;9.40;4.50;;;;;;;5.73;59.73;102447.70;106181;1304;23134;-67
2022/12/04 10:35:28;;;;;;;13.30;4.10;;;;;;;5.74;59.45;102447.58;105922;1307;23708;-68
2022/12/04 10:38:05;;;;;;;11.50;4.70;;;;;;;5.78;59.53;102446.17;106315;1304;23358;-70
2022/12/04 10:40:34;;;;;;;7.90;4.30;;;;;;;5.76;59.30;102442.79;106748;1305;21976;-67
2022/12/04 10:43:17;;;;;;;8.50;4.20;;;;;;;5.64;59.80;102440.02;106536;1286;21958;-68
2022/12/04 10:45:43;;;;;;;10.40;4.30;;;;;;;5.76;59.41;102438.92;105714;1308;22843;-69
2022/12/04 10:48:19;;;;;;;14.70;5.30;;;;;;;5.84;59.04;102443.42;105573;1307;21960;-69
2022/12/04 19:25:55;;;;;;;9.90;4.20;;;;;;;2.96;71.88;102448.67;105212;1304;21977;-69
2022/12/04 19:28:21;;;;;;;13.90;4.60;;;;;;;3.49;68.42;102450.82;105206;1312;22312;-68
2022/12/04 19:30:47;;;;;;;10.40;4.40;;;;;;;3.70;67.32;102451.53;105225;1313;21980;-70
2022/12/04 19:33:13;;;;;;;8.10;4.50;;;;;;;3.91;66.45;102452.70;105339;1312;21990;-69
2022/12/04 19:35:39;;;;;;;7.10;3.60;;;;;;;4.07;65.85;102455.03;105378;1301;214009;-69
2022/12/04 19:38:05;;;;;;;4.90;2.80;;;;;;;4.22;65.22;102453.67;105557;1309;22029;-69
2022/12/04 19:40:30;;;;;;;7.50;3.30;;;;;;;4.43;64.84;102450.25;105579;1309;23090;-69
2022/12/04 19:42:56;;;;;;;9.40;3.60;;;;;;;4.71;64.18;102447.35;105520;1303;23281;-69
2022/12/04 19:45:22;;;;;;;6.40;2.70;;;;;;;4.70;63.86;102444.85;105636;1306;22114;-69
2022/12/04 19:47:48;;;;;;;7.50;2.60;;;;;;;4.68;63.90;102444.44;105620;1306;21981;-68
2022/12/04 19:50:13;;;;;;;6.20;2.60;;;;;;;4.70;63.78;102441.77;105614;1306;21976;-69
2022/12/04 19:52:39;;;;;;;5.80;2.40;;;;;;;4.74;63.44;102438.27;105617;1306;22013;-68
2022/12/04 19:55:06;;;;;;;3.70;2.00;;;;;;;4.74;63.25;102434.13;105592;1306;23164;-68
2022/12/04 19:57:32;;;;;;;6.80;1.90;;;;;;;4.76;62.96;102434.74;105667;1306;21962;-68
2022/12/04 19:59:58;;;;;;;5.50;2.40;;;;;;;4.83;62.92;102436.42;105622;1306;22012;-67
2022/12/04 20:02:24;;;;;;;4.50;1.80;;;;;;;4.87;62.81;102433.83;105603;1306;21962;-71
2022/12/04 20:04:50;;;;;;;6.70;2.30;;;;;;;4.44;63.28;102428.25;105574;1306;21954;-70
2022/12/04 20:07:15;;;;;;;5.30;2.30;;;;;;;4.35;63.68;102426.80;105612;1306;21951;-68
2022/12/04 20:09:41;;;;;;;6.00;2.20;;;;;;;4.34;63.64;102426.56;105603;1306;21949;-67
2022/12/04 20:12:07;;;;;;;8.10;2.70;;;;;;;4.37;63.53;102428.27;105582;1306;21964;-68
2022/12/04 20:14:33;;;;;;;4.80;2.30;;;;;;;4.41;63.28;102429.69;105725;1306;21966;-67
2022/12/04 20:17:02;;;;;;;8.20;2.40;;;;;;;4.43;63.15;102427.84;105614;1304;23313;-68
2022/12/04 20:19:28;;;;;;;4.90;2.40;;;;;;;4.45;63.00;102434.02;105612;1306;21968;-68
2022/12/04 20:21:54;;;;;;;6.80;2.60;;;;;;;4.40;62.94;102433.98;105617;1306;21971;-69
2022/12/04 20:24:20;;;;;;;5.00;2.30;;;;;;;4.41;62.61;102432.81;105709;1294;22056;-70
2022/12/04 20:26:45;;;;;;;4.40;2.40;;;;;;;4.35;62.71;102434.44;105588;1306;22238;-70
2022/12/04 20:29:14;;;;;;;6.30;2.90;;;;;;;4.66;62.06;102432.36;105632;1306;22010;-71
2022/12/04 20:31:42;;;;;;;8.50;2.70;;;;;;;4.91;61.40;102432.41;105690;1303;22023;-70
2022/12/04 20:34:16;;;;;;;7.10;3.00;;;;;;;4.95;61.33;102435.69;105762;1306;21972;-69
2022/12/04 20:36:46;;;;;;;7.60;2.40;;;;;;;4.96;61.35;102436.29;105668;1305;21974;-70
2022/12/04 20:39:12;;;;;;;5.70;2.70;;;;;;;4.99;61.42;102438.33;105672;1309;22013;-70
2022/12/04 20:41:38;;;;;;;6.50;2.60;;;;;;;5.08;61.03;102440.63;105672;1306;21957;-70
2022/12/04 20:44:06;;;;;;;8.00;3.00;;;;;;;5.20;60.49;102436.26;105700;1306;21966;-70
2022/12/04 20:46:36;;;;;;;9.20;3.40;;;;;;;5.24;60.38;102437.48;105802;1306;23156;-70
2022/12/04 20:49:07;;;;;;;5.60;3.20;;;;;;;5.27;60.29;102440.74;105773;1307;21972;-71
2022/12/04 20:51:37;;;;;;;9.60;3.30;;;;;;;5.28;60.30;102440.80;105760;1307;22010;-71
2022/12/04 20:54:03;;;;;;;4.70;2.60;;;;;;;5.27;59.86;102434.67;105725;1307;21976;-70
2022/12/04 20:56:32;;;;;;;7.10;4.10;;;;;;;5.25;59.85;102434.22;105749;1307;22958;-70
2022/12/04 20:59:00;;;;;;;9.00;3.30;;;;;;;5.24;59.89;102435.06;105687;1308;23121;-71
2022/12/04 21:01:25;;;;;;;9.10;3.10;;;;;;;5.18;59.81;102433.07;105697;1307;21966;-71
2022/12/04 21:03:51;;;;;;;6.60;3.10;;;;;;;5.14;60.04;102430.98;105627;1308;23802;-70
2022/12/04 21:06:22;;;;;;;8.00;3.00;;;;;;;5.18;60.18;102432.55;105673;1308;21974;-69
2022/12/04 21:08:58;;;;;;;6.60;3.60;;;;;;;5.19;59.78;102428.56;105614;1306;21978;-69
2022/12/04 21:11:28;;;;;;;6.80;2.60;;;;;;;5.17;60.04;102423.27;105596;1307;21978;-71
2022/12/04 21:16:39;;;;;;;8.80;3.10;;;;;;;5.17;59.79;102425.89;105670;1307;21977;-71
2022/12/04 21:19:06;;;;;;;7.30;3.00;;;;;;;5.14;59.61;102423.48;105810;1307;22057;-70
2022/12/04 21:21:32;;;;;;;9.20;3.10;;;;;;;4.97;60.00;102421.02;105579;1309;24420;-70
2022/12/04 21:23:57;;;;;;;9.30;3.10;;;;;;;4.80;60.43;102424.27;105650;1309;23720;-71
2022/12/04 21:26:27;;;;;;;6.50;3.60;;;;;;;4.76;60.41;102423.05;105763;1307;22014;-70
2022/12/04 21:28:55;;;;;;;10.00;3.50;;;;;;;4.73;60.48;102423.80;105645;1307;21988;-69
2022/12/04 21:31:21;;;;;;;9.90;3.70;;;;;;;4.75;60.09;102420.77;105702;1309;22019;-71
2022/12/04 21:33:46;;;;;;;6.10;2.80;;;;;;;4.92;59.64;102416.08;105788;1308;21963;-70
2022/12/04 21:36:12;;;;;;;10.80;3.20;;;;;;;4.88;59.72;102413.65;105759;1309;21973;-68
2022/12/04 21:38:38;;;;;;;11.80;4.00;;;;;;;4.82;59.90;102415.89;105675;1308;21976;-70
2022/12/04 21:41:07;;;;;;;7.80;4.00;;;;;;;4.73;59.91;102415.96;105658;1309;23687;-70
2022/12/04 21:43:34;;;;;;;9.30;3.30;;;;;;;4.66;59.84;102416.02;105718;1309;23635;-71
2022/12/04 21:46:01;;;;;;;9.80;3.40;;;;;;;4.68;59.85;102414.73;105833;1309;21965;-70
2022/12/04 21:48:27;;;;;;;9.10;2.90;;;;;;;4.59;60.06;102417.63;105706;1309;21973;-71
2022/12/04 21:50:53;;;;;;;10.00;3.80;;;;;;;4.58;60.17;102415.16;105766;1307;21967;-69
2022/12/04 21:53:19;;;;;;;7.70;3.70;;;;;;;4.69;59.96;102405.54;105685;1307;21968;-70
2022/12/04 21:55:50;;;;;;;6.80;3.30;;;;;;;4.29;60.91;102406.38;105648;1308;23999;-70
2022/12/04 21:58:16;;;;;;;5.30;3.30;;;;;;;4.07;61.75;102406.56;105740;1299;23642;-71
2022/12/04 22:00:43;;;;;;;7.10;3.10;;;;;;;4.05;61.95;102403.84;105663;1309;21977;-71
2022/12/04 22:03:12;;;;;;;7.80;3.90;;;;;;;3.94;62.17;102402.66;105765;1307;22070;-71
2022/12/04 22:05:38;;;;;;;8.10;3.30;;;;;;;3.87;62.30;102404.23;105656;1308;22035;-71
2022/12/04 22:08:05;;;;;;;6.70;2.90;;;;;;;3.86;62.27;102405.05;105638;1307;21987;-69
2022/12/04 22:10:32;;;;;;;8.60;3.90;;;;;;;3.89;62.15;102407.25;105748;1309;22105;-70
2022/12/04 22:12:58;;;;;;;7.30;3.60;;;;;;;4.00;61.92;102405.72;105689;1305;21975;-69
2022/12/04 22:15:24;;;;;;;5.90;3.50;;;;;;;4.10;61.63;102401.81;105631;1307;21973;-68
2022/12/04 22:17:50;;;;;;;7.40;4.00;;;;;;;4.03;61.83;102401.14;105645;1304;21982;-68
2022/12/04 22:20:16;;;;;;;5.90;3.10;;;;;;;4.06;61.83;102399.72;105647;1309;23673;-68
2022/12/04 22:22:42;;;;;;;9.60;3.10;;;;;;;4.09;61.78;102402.46;105617;1309;21975;-67
2022/12/04 22:25:08;;;;;;;9.00;3.40;;;;;;;4.17;61.73;102398.69;105614;1309;22075;-67
2022/12/04 22:27:34;;;;;;;6.80;3.50;;;;;;;4.19;61.89;102396.68;105662;1309;21953;-69
2022/12/04 22:30:00;;;;;;;9.70;3.10;;;;;;;4.19;61.61;102390.59;105650;1309;21965;-67
2022/12/04 22:32:25;;;;;;;6.30;3.10;;;;;;;4.18;61.63;102390.91;105660;1309;23627;-69
2022/12/04 22:34:51;;;;;;;5.50;3.60;;;;;;;4.17;61.47;102398.52;105618;1309;21971;-67
2022/12/04 22:37:17;;;;;;;8.20;2.70;;;;;;;4.25;61.38;102395.42;105639;1308;21990;-67
2022/12/04 22:39:43;;;;;;;6.90;3.10;;;;;;;4.29;61.23;102391.23;105616;1309;23643;-69
2022/12/04 22:42:08;;;;;;;7.50;3.40;;;;;;;4.25;61.17;102391.77;105601;1309;21964;-69
2022/12/04 22:44:34;;;;;;;7.30;3.30;;;;;;;4.26;61.28;102392.66;105613;1309;21962;-70
2022/12/04 22:47:00;;;;;;;11.70;3.70;;;;;;;4.32;60.82;102394.65;105618;1309;21966;-68
